Time;durP1;ratioP1;P1;durP2;ratioP2;P2;SDS_P1;SDS_P2;PMS_P1;PMS_P2;Temp;Humidity;BMP_temperature;BMP_pressure;BME280_temperature;BME280_humidity;BME280_pressure;Samples;Min_cycle;Max_cycle;Signal;HPM_P1;HPM_P2
2023/08/14 00:02:18;;;;;;;44.90;25.02;;;;;;;19.35;73.87;95230.25;4990665;28;20208;-73
2023/08/14 00:04:44;;;;;;;25.75;17.58;;;;;;;19.33;73.95;95235.03;4990460;28;20169;-73
2023/08/14 00:07:09;;;;;;;17.55;10.00;;;;;;;19.34;73.99;95228.66;4990560;28;20239;-73
2023/08/14 00:09:34;;;;;;;12.38;8.15;;;;;;;19.26;73.89;95221.91;4990464;28;20192;-73
2023/08/14 00:12:01;;;;;;;10.80;6.85;;;;;;;19.32;74.07;95231.56;4990679;28;20636;-73
2023/08/14 00:14:27;;;;;;;7.95;4.40;;;;;;;19.33;73.70;95225.16;4993842;28;20197;-72
2023/08/14 00:16:52;;;;;;;7.45;4.43;;;;;;;19.30;73.59;95236.34;4993987;28;20181;-72
2023/08/14 00:19:18;;;;;;;7.67;5.47;;;;;;;19.28;73.46;95232.34;4992744;28;20438;-72
2023/08/14 00:21:44;;;;;;;7.05;4.80;;;;;;;19.26;73.20;95235.28;4993853;28;20165;-72
2023/08/14 00:24:09;;;;;;;8.23;4.63;;;;;;;19.30;72.65;95241.69;4993943;28;20161;-72
2023/08/14 00:26:34;;;;;;;5.70;4.47;;;;;;;19.38;72.28;95240.41;4991459;28;20411;-72
2023/08/14 00:29:00;;;;;;;6.25;4.50;;;;;;;19.37;72.12;95238.81;4974343;28;20646;-72
2023/08/14 00:31:25;;;;;;;7.13;5.23;;;;;;;19.29;72.84;95245.41;4974404;28;20422;-73
2023/08/14 00:33:52;;;;;;;10.30;5.90;;;;;;;19.06;73.74;95224.41;4973852;28;20477;-73
2023/08/14 00:36:17;;;;;;;6.35;4.93;;;;;;;19.01;74.25;95227.88;4990939;28;20173;-73
2023/08/14 00:38:42;;;;;;;7.20;5.13;;;;;;;19.09;74.32;95253.28;4993502;28;20192;-73
2023/08/14 00:41:08;;;;;;;7.00;4.60;;;;;;;18.95;74.91;95241.41;4993440;28;20655;-73
2023/08/14 00:43:34;;;;;;;7.45;4.93;;;;;;;18.88;75.25;95249.59;4991631;28;20195;-73
2023/08/14 00:46:00;;;;;;;9.95;5.68;;;;;;;18.88;75.29;95246.94;4974150;28;20253;-73
2023/08/14 00:48:26;;;;;;;8.25;6.15;;;;;;;18.79;75.48;95243.94;4972851;28;20937;-73
2023/08/14 00:50:54;;;;;;;6.70;5.38;;;;;;;18.77;75.59;95247.88;4977006;28;20173;-73
2023/08/14 00:53:20;;;;;;;8.90;5.88;;;;;;;18.73;75.79;95246.81;4993366;28;20201;-73
2023/08/14 00:55:45;;;;;;;8.48;5.60;;;;;;;18.54;76.29;95224.97;4993216;28;20271;-73
2023/08/14 00:58:11;;;;;;;7.85;5.65;;;;;;;18.56;76.36;95227.41;4993241;28;20271;-73
2023/08/14 01:00:37;;;;;;;10.27;5.55;;;;;;;18.63;76.01;95244.03;4990720;28;20416;-72
2023/08/14 01:03:03;;;;;;;8.43;6.30;;;;;;;18.51;76.82;95246.00;4972481;28;20417;-73
2023/08/14 01:05:28;;;;;;;9.93;6.03;;;;;;;18.47;77.03;95246.50;4973617;28;20209;-73
2023/08/14 01:07:55;;;;;;;7.38;5.75;;;;;;;18.51;76.99;95246.00;4973811;28;20209;-73
2023/08/14 01:10:21;;;;;;;7.82;5.53;;;;;;;18.57;76.68;95245.03;4973833;28;20262;-74
2023/08/14 01:12:54;;;;;;;8.18;5.43;;;;;;;18.49;76.58;95227.59;4973557;28;20193;-73
2023/08/14 01:15:29;;;;;;;8.02;5.75;;;;;;;18.61;76.50;95246.94;4973951;28;20193;-73
2023/08/14 01:17:59;;;;;;;9.07;5.85;;;;;;;18.50;76.49;95239.88;4976493;28;20267;-73
2023/08/14 01:20:27;;;;;;;10.13;5.68;;;;;;;18.29;77.39;95233.50;4991596;28;20460;-73
2023/08/14 01:23:29;;;;;;;12.40;6.75;;;;;;;18.32;77.55;95232.22;4992986;28;20247;-73
2023/08/14 01:25:55;;;;;;;10.95;5.38;;;;;;;18.30;77.51;95235.13;4992542;28;20169;-73
2023/08/14 01:28:21;;;;;;;10.18;5.47;;;;;;;18.33;77.54;95231.16;4992555;28;20181;-73
2023/08/14 01:30:46;;;;;;;10.07;6.00;;;;;;;18.16;77.93;95238.41;4992105;28;20423;-73
2023/08/14 01:33:12;;;;;;;10.07;5.95;;;;;;;18.10;78.36;95225.00;4992536;28;20255;-73
2023/08/14 01:35:57;;;;;;;9.48;6.03;;;;;;;18.17;77.58;95222.16;4992329;28;20184;-73
2023/08/14 01:38:45;;;;;;;9.30;5.70;;;;;;;18.10;77.15;95213.56;4992527;28;20177;-73
2023/08/14 01:41:41;;;;;;;9.45;6.13;;;;;;;18.21;77.14;95230.47;4975337;28;20185;-73
2023/08/14 01:44:10;;;;;;;10.60;6.18;;;;;;;18.09;76.89;95217.25;4992493;28;20177;-73
2023/08/14 01:46:37;;;;;;;6.35;5.18;;;;;;;18.12;76.90;95229.28;4992409;28;20249;-73
2023/08/14 01:49:03;;;;;;;12.13;5.45;;;;;;;18.10;76.94;95227.69;4992256;28;20181;-73
2023/08/14 01:51:30;;;;;;;9.00;5.38;;;;;;;18.07;76.99;95224.72;4992125;28;20694;-73
2023/08/14 01:53:55;;;;;;;7.60;5.05;;;;;;;18.05;76.74;95216.16;4992114;28;20584;-73
2023/08/14 01:56:21;;;;;;;9.88;5.63;;;;;;;18.09;77.20;95225.25;4992274;28;20180;-73
2023/08/14 01:58:46;;;;;;;14.48;5.80;;;;;;;18.10;77.18;95221.53;4992144;28;20193;-73
2023/08/14 02:01:11;;;;;;;10.20;6.22;;;;;;;18.05;76.90;95216.16;4992098;28;20320;-73
2023/08/14 02:03:37;;;;;;;11.45;6.88;;;;;;;18.00;77.15;95222.22;4991495;28;20511;-73
2023/08/14 02:06:02;;;;;;;17.40;6.38;;;;;;;17.83;77.55;95220.66;4992005;28;20181;-73
2023/08/14 02:08:28;;;;;;;11.57;5.70;;;;;;;17.83;77.85;95226.00;4992028;28;20161;-73
2023/08/14 02:10:53;;;;;;;11.75;5.75;;;;;;;17.66;78.57;95199.41;4991946;28;20173;-73
2023/08/14 02:13:19;;;;;;;9.70;6.18;;;;;;;17.76;78.40;95230.69;4991889;28;20204;-73
2023/08/14 02:15:45;;;;;;;13.20;7.47;;;;;;;17.55;79.19;95225.06;4990980;28;20427;-73
2023/08/14 02:18:11;;;;;;;9.52;6.15;;;;;;;17.49;79.18;95219.91;4974519;28;20948;-73
2023/08/14 02:20:48;;;;;;;9.63;7.15;;;;;;;17.59;79.03;95223.53;4991870;28;20181;-73
2023/08/14 02:23:13;;;;;;;9.20;5.85;;;;;;;17.63;79.07;95223.88;4991963;28;20631;-73
2023/08/14 02:25:42;;;;;;;10.77;6.05;;;;;;;17.66;78.84;95228.69;4991692;28;20184;-73
2023/08/14 02:28:08;;;;;;;11.15;6.20;;;;;;;17.67;78.36;95219.66;4991734;28;20264;-73
2023/08/14 02:30:41;;;;;;;11.18;5.53;;;;;;;17.71;77.85;95226.13;4991324;28;20316;-73
2023/08/14 02:33:07;;;;;;;29.38;15.23;;;;;;;17.69;77.98;95222.88;4991433;28;20614;-73
2023/08/14 02:35:34;;;;;;;24.65;14.80;;;;;;;17.67;77.89;95230.31;4990980;28;20216;-73
2023/08/14 02:38:00;;;;;;;32.08;19.85;;;;;;;17.48;78.07;95215.63;4991540;28;20177;-73
2023/08/14 02:40:26;;;;;;;10.68;6.43;;;;;;;17.57;77.75;95238.94;4991552;28;20181;-73
2023/08/14 02:42:51;;;;;;;13.73;8.73;;;;;;;17.57;77.66;95246.91;4991389;28;20577;-73
2023/08/14 02:45:16;;;;;;;8.98;5.75;;;;;;;17.43;77.87;95237.66;4991304;28;20323;-73
2023/08/14 02:47:42;;;;;;;12.00;5.50;;;;;;;17.21;78.99;95242.13;4991278;28;20181;-73
2023/08/14 02:50:07;;;;;;;9.52;6.85;;;;;;;17.25;79.19;95248.56;4991266;28;20264;-73
2023/08/14 02:52:33;;;;;;;15.15;6.85;;;;;;;17.31;78.99;95242.25;4990876;28;20428;-73
2023/08/14 02:54:58;;;;;;;6.78;4.40;;;;;;;17.34;78.18;95247.09;4991404;28;20205;-73
2023/08/14 02:57:23;;;;;;;6.87;4.90;;;;;;;17.19;78.38;95252.19;4990865;28;20499;-73
2023/08/14 02:59:49;;;;;;;11.93;6.03;;;;;;;17.13;79.40;95250.47;4991144;28;20193;-73
2023/08/14 03:02:14;;;;;;;7.88;5.20;;;;;;;17.21;79.61;95260.75;4991029;28;20183;-73
2023/08/14 03:04:39;;;;;;;9.32;5.50;;;;;;;17.26;79.33;95258.16;4991176;28;20170;-73
2023/08/14 03:07:05;;;;;;;15.63;8.93;;;;;;;17.30;78.50;95261.94;4991061;28;20268;-73
2023/08/14 03:09:30;;;;;;;24.20;15.27;;;;;;;17.31;78.59;95252.91;4991182;28;20176;-73
2023/08/14 03:11:56;;;;;;;38.15;24.27;;;;;;;17.38;78.12;95248.25;4991205;28;20185;-73
2023/08/14 03:14:21;;;;;;;9.77;5.53;;;;;;;17.39;77.84;95255.16;4973157;28;20998;-73
2023/08/14 03:16:46;;;;;;;17.23;8.30;;;;;;;17.30;78.14;95245.97;4990814;28;20189;-73
2023/08/14 03:19:12;;;;;;;9.40;5.82;;;;;;;17.31;78.01;95248.38;4990239;28;20877;-73
2023/08/14 03:21:37;;;;;;;21.38;12.30;;;;;;;17.27;78.27;95257.13;4990848;28;20192;-73
2023/08/14 03:24:03;;;;;;;12.38;7.70;;;;;;;17.23;78.22;95254.13;4991022;28;20172;-73
2023/08/14 03:26:28;;;;;;;10.98;6.15;;;;;;;17.04;79.00;95251.97;4973446;28;20255;-73
2023/08/14 03:28:54;;;;;;;12.10;6.22;;;;;;;16.96;79.52;95258.44;4986910;28;20181;-73
2023/08/14 03:31:19;;;;;;;9.88;7.72;;;;;;;17.07;79.61;95252.25;4975518;28;20975;-73
2023/08/14 03:33:44;;;;;;;12.82;6.57;;;;;;;17.09;79.34;95260.00;4971299;28;20204;-71
2023/08/14 03:36:10;;;;;;;16.50;9.65;;;;;;;16.98;79.43;95235.09;4971243;28;20181;-72
2023/08/14 03:38:35;;;;;;;14.07;5.80;;;;;;;17.11;79.19;95252.59;4971412;28;20166;-71
2023/08/14 03:41:01;;;;;;;7.65;5.47;;;;;;;17.02;79.02;95268.16;4971263;28;20228;-73
2023/08/14 03:43:26;;;;;;;9.52;6.13;;;;;;;17.00;79.46;95250.81;4987949;28;20177;-73
2023/08/14 03:45:51;;;;;;;13.70;7.93;;;;;;;17.10;79.72;95249.13;4990460;28;20162;-73
2023/08/14 03:48:17;;;;;;;17.63;6.88;;;;;;;17.21;79.20;95253.56;4992239;28;20233;-73
2023/08/14 03:50:49;;;;;;;9.55;5.18;;;;;;;17.15;78.69;95251.06;4990463;28;20292;-72
2023/08/14 03:53:14;;;;;;;11.80;6.43;;;;;;;17.20;78.68;95251.16;4974646;28;20201;-72
2023/08/14 03:55:39;;;;;;;12.27;5.70;;;;;;;17.26;78.89;95248.31;4957374;28;20184;-72
2023/08/14 03:58:05;;;;;;;22.73;10.00;;;;;;;17.28;78.87;95250.75;4974738;28;20260;-72
2023/08/14 04:00:30;;;;;;;36.42;20.55;;;;;;;17.29;78.85;95255.84;4974602;28;20178;-72
2023/08/14 04:02:56;;;;;;;25.45;14.52;;;;;;;17.40;78.74;95256.78;4974659;28;20186;-72
2023/08/14 04:05:21;;;;;;;21.65;11.13;;;;;;;17.42;78.50;95244.03;4974752;28;20212;-72
2023/08/14 04:07:47;;;;;;;13.52;8.23;;;;;;;17.48;78.31;95236.91;4974630;28;20632;-72
2023/08/14 04:10:12;;;;;;;17.50;9.43;;;;;;;17.73;77.88;95262.09;4974801;28;20166;-72
2023/08/14 04:12:37;;;;;;;14.10;8.35;;;;;;;17.90;77.12;95251.38;4990368;28;20958;-72
2023/08/14 04:15:13;;;;;;;17.42;9.98;;;;;;;18.06;77.08;95258.56;4994138;28;20196;-72
2023/08/14 04:17:39;;;;;;;12.57;7.10;;;;;;;18.25;75.51;95252.91;4993887;28;20177;-72
2023/08/14 04:20:05;;;;;;;9.88;5.30;;;;;;;18.49;73.89;95262.25;4993977;28;20177;-72
2023/08/14 04:22:30;;;;;;;10.65;5.70;;;;;;;18.68;72.60;95266.22;4993870;28;20173;-72
2023/08/14 04:24:56;;;;;;;7.15;5.35;;;;;;;18.93;71.98;95272.88;4988372;28;20581;-71
2023/08/14 04:27:21;;;;;;;6.20;4.85;;;;;;;19.27;70.58;95276.94;4974240;28;20174;-72
2023/08/14 04:29:46;;;;;;;8.90;4.68;;;;;;;19.52;69.06;95271.00;4974299;28;20192;-72
2023/08/14 04:32:12;;;;;;;8.57;4.78;;;;;;;19.80;68.59;95284.03;4974223;28;20289;-73
2023/08/14 04:34:37;;;;;;;7.95;4.65;;;;;;;20.11;67.09;95285.00;4974174;28;20209;-73
2023/08/14 04:37:02;;;;;;;13.98;5.07;;;;;;;20.39;66.14;95280.34;4956583;28;20260;-73
2023/08/14 04:39:28;;;;;;;8.75;5.13;;;;;;;20.70;64.87;95284.72;4956421;28;20181;-73
2023/08/14 04:41:53;;;;;;;11.25;4.70;;;;;;;21.15;64.67;95284.03;4973797;28;20174;-74
2023/08/14 04:44:19;;;;;;;8.48;4.95;;;;;;;21.69;63.70;95286.22;4973610;28;20645;-75
2023/08/14 04:46:44;;;;;;;15.73;6.72;;;;;;;22.15;61.48;95298.47;4982377;28;20178;-75
2023/08/14 04:49:10;;;;;;;11.30;4.57;;;;;;;22.64;59.67;95297.00;4990215;28;20211;-74
2023/08/14 04:51:35;;;;;;;9.90;4.63;;;;;;;23.06;58.00;95291.16;4985805;28;20176;-75
2023/08/14 04:54:00;;;;;;;5.75;3.80;;;;;;;23.60;56.20;95301.81;4993253;28;20200;-72
2023/08/14 04:56:26;;;;;;;12.07;4.53;;;;;;;24.21;54.73;95288.63;4993147;28;20253;-73
2023/08/14 04:58:52;;;;;;;8.73;4.50;;;;;;;24.83;53.83;95295.69;4988229;28;20209;-73
2023/08/14 05:01:18;;;;;;;7.95;4.13;;;;;;;25.33;52.38;95293.41;4993364;28;20209;-74
2023/08/14 05:03:43;;;;;;;4.50;3.78;;;;;;;25.85;48.89;95297.72;4993867;28;20212;-74
2023/08/14 05:06:09;;;;;;;7.35;4.80;;;;;;;26.44;48.76;95306.94;4993399;28;20256;-74
2023/08/14 05:08:34;;;;;;;9.38;4.40;;;;;;;27.01;46.60;95292.00;4993272;28;20177;-73
2023/08/14 05:10:59;;;;;;;12.07;6.25;;;;;;;27.52;45.60;95298.97;4993064;28;20184;-75
2023/08/14 05:13:25;;;;;;;6.03;4.10;;;;;;;27.85;43.68;95301.47;4992951;28;20593;-74
2023/08/14 05:15:51;;;;;;;10.43;6.68;;;;;;;28.48;43.07;95298.47;4988854;28;20186;-74
2023/08/14 05:18:20;;;;;;;9.07;5.47;;;;;;;29.01;41.07;95305.66;4980946;28;20224;-75
2023/08/14 05:20:46;;;;;;;7.32;3.90;;;;;;;29.47;40.40;95314.06;4992970;28;20191;-74
2023/08/14 05:23:12;;;;;;;12.05;4.45;;;;;;;29.75;38.61;95286.59;4992884;28;20181;-74
2023/08/14 05:25:38;;;;;;;6.78;3.58;;;;;;;30.35;39.05;95300.84;4992879;28;20173;-76
2023/08/14 05:28:04;;;;;;;8.90;4.10;;;;;;;30.99;37.40;95310.81;4993149;28;20184;-75
2023/08/14 05:30:30;;;;;;;6.25;3.35;;;;;;;31.47;36.11;95313.09;4991932;28;20174;-75
2023/08/14 05:32:56;;;;;;;9.38;4.57;;;;;;;31.87;35.38;95297.06;4986259;28;20548;-75
2023/08/14 05:35:24;;;;;;;3.92;3.53;;;;;;;32.32;34.95;95312.66;4982173;28;20181;-75
2023/08/14 05:37:55;;;;;;;6.30;4.00;;;;;;;32.53;34.43;95310.63;4991722;28;20188;-75
2023/08/14 05:40:22;;;;;;;6.72;3.53;;;;;;;32.91;34.12;95319.34;4992790;28;21018;-74
2023/08/14 05:43:07;;;;;;;9.75;4.25;;;;;;;33.36;34.40;95317.63;4992671;28;20184;-74
2023/08/14 05:45:34;;;;;;;5.30;3.78;;;;;;;33.64;32.00;95313.78;4992587;28;20177;-75
2023/08/14 05:48:01;;;;;;;6.25;3.88;;;;;;;33.60;31.34;95312.09;4992959;28;20600;-76
2023/08/14 05:50:27;;;;;;;5.30;3.95;;;;;;;33.61;31.42;95305.50;4992718;28;20193;-76
2023/08/14 05:52:56;;;;;;;5.93;3.97;;;;;;;33.96;30.76;95312.00;4992797;28;20184;-76
2023/08/14 05:55:23;;;;;;;8.30;3.50;;;;;;;34.44;31.21;95319.16;5001076;28;20178;-76
2023/08/14 05:57:48;;;;;;;6.63;4.03;;;;;;;34.84;30.46;95323.72;4992958;28;20173;-76
2023/08/14 06:00:15;;;;;;;7.60;4.28;;;;;;;34.93;30.64;95321.59;4992806;28;20567;-76
2023/08/14 06:02:40;;;;;;;7.38;6.15;;;;;;;34.94;29.93;95323.16;4992857;28;20174;-76
2023/08/14 06:05:06;;;;;;;9.15;6.18;;;;;;;34.84;30.25;95317.44;4992518;28;20161;-76
2023/08/14 06:07:31;;;;;;;12.32;7.72;;;;;;;34.75;30.90;95317.63;4991717;28;20354;-76
2023/08/14 06:09:57;;;;;;;11.23;5.63;;;;;;;34.52;30.67;95320.13;4981882;28;20173;-76
2023/08/14 06:12:22;;;;;;;5.20;3.80;;;;;;;34.38;30.03;95311.56;4988911;28;20689;-76
2023/08/14 06:14:47;;;;;;;7.72;3.67;;;;;;;33.76;30.32;95291.13;4988509;28;20205;-76
2023/08/14 06:17:13;;;;;;;12.05;3.80;;;;;;;33.06;32.09;95306.94;4990643;28;20204;-76
2023/08/14 06:19:38;;;;;;;6.47;3.90;;;;;;;32.45;33.57;95298.69;4986907;28;20758;-76
2023/08/14 06:22:05;;;;;;;9.85;4.68;;;;;;;32.27;33.87;95299.22;4990692;28;20181;-76
2023/08/14 06:24:30;;;;;;;6.47;4.40;;;;;;;32.35;33.60;95304.59;4974017;28;20184;-76
2023/08/14 06:26:55;;;;;;;4.90;3.65;;;;;;;31.73;34.37;95291.91;4991508;28;20193;-76
2023/08/14 06:29:21;;;;;;;5.00;3.75;;;;;;;31.41;35.09;95298.06;4992118;28;20185;-76
2023/08/14 06:31:46;;;;;;;8.30;4.10;;;;;;;30.86;35.83;95287.38;4991649;28;20544;-76
2023/08/14 06:34:12;;;;;;;6.82;3.70;;;;;;;30.43;36.80;95293.78;4991390;28;20208;-76
2023/08/14 06:36:37;;;;;;;5.90;3.78;;;;;;;30.37;37.33;95301.28;5004255;28;20566;-76
2023/08/14 06:39:02;;;;;;;5.30;3.38;;;;;;;29.75;37.49;95294.72;5011368;28;20173;-76
2023/08/14 06:41:28;;;;;;;7.88;3.17;;;;;;;29.47;38.76;95292.34;5001994;28;20661;-76
2023/08/14 06:43:53;;;;;;;7.40;3.22;;;;;;;29.95;39.27;95294.06;4991818;28;20710;-76
2023/08/14 06:46:19;;;;;;;4.32;3.00;;;;;;;30.08;37.04;95306.69;4988811;28;20170;-76
2023/08/14 06:48:44;;;;;;;4.53;2.97;;;;;;;30.10;36.84;95312.56;4972605;28;20180;-76
2023/08/14 06:51:10;;;;;;;4.22;3.00;;;;;;;29.78;37.28;95296.78;4988302;28;20247;-76
2023/08/14 06:53:35;;;;;;;3.67;2.65;;;;;;;29.32;37.65;95305.56;4992006;28;20251;-76
2023/08/14 06:56:01;;;;;;;5.78;3.00;;;;;;;29.33;38.35;95285.44;4991321;28;20207;-76
2023/08/14 06:58:26;;;;;;;4.85;3.15;;;;;;;29.71;39.50;95304.63;4991268;28;20180;-76
2023/08/14 07:14:19;;;;;;;8.02;3.10;;;;;;;28.66;39.53;95312.88;4991125;28;20263;-76
2023/08/14 07:16:45;;;;;;;7.72;2.95;;;;;;;28.92;38.66;95300.22;4991245;28;20189;-76
2023/08/14 07:19:10;;;;;;;5.32;2.83;;;;;;;29.25;39.03;95298.69;4990908;28;20633;-76
2023/08/14 07:21:36;;;;;;;8.75;2.70;;;;;;;29.67;38.17;95303.66;4991230;28;20361;-76
2023/08/14 07:24:01;;;;;;;5.03;2.90;;;;;;;29.72;36.85;95311.66;4994901;28;20251;-75
2023/08/14 07:26:27;;;;;;;2.85;2.55;;;;;;;29.61;38.62;95314.69;4994696;28;20181;-76
2023/08/14 07:28:52;;;;;;;5.47;2.42;;;;;;;29.91;37.58;95307.47;4994879;28;20168;-76
2023/08/14 07:31:18;;;;;;;5.03;2.58;;;;;;;29.73;36.61;95310.53;4994715;28;20177;-76
2023/08/14 07:33:44;;;;;;;3.03;2.45;;;;;;;29.25;36.47;95309.53;4994799;28;20197;-76
2023/08/14 07:36:09;;;;;;;6.95;2.35;;;;;;;29.12;38.17;95296.13;4994662;28;20233;-76
2023/08/14 07:38:35;;;;;;;8.02;2.95;;;;;;;29.12;36.80;95296.91;4994701;28;20176;-76
2023/08/14 07:41:00;;;;;;;7.72;2.90;;;;;;;29.57;37.43;95308.31;4994582;28;20652;-76
2023/08/14 07:43:25;;;;;;;6.43;2.33;;;;;;;29.18;36.06;95284.00;4994172;28;20208;-77
2023/08/14 07:45:52;;;;;;;5.13;2.50;;;;;;;29.01;37.94;95290.19;4993449;28;20259;-76
2023/08/14 07:48:18;;;;;;;2.88;2.58;;;;;;;29.26;36.71;95296.75;4994889;28;20181;-76
2023/08/14 07:50:44;;;;;;;5.10;3.00;;;;;;;29.54;36.12;95298.09;4994571;28;20207;-76
2023/08/14 07:53:10;;;;;;;6.70;2.25;;;;;;;29.50;35.64;95288.97;4993801;28;20181;-77
2023/08/14 07:55:36;;;;;;;14.55;2.88;;;;;;;29.76;34.96;95288.16;5015060;28;20168;-75
2023/08/14 07:58:02;;;;;;;7.82;2.38;;;;;;;30.03;34.46;95306.84;5007002;28;20235;-75
2023/08/14 08:00:27;;;;;;;5.38;2.88;;;;;;;30.01;34.80;95304.44;4990494;28;20185;-75
2023/08/14 08:02:56;;;;;;;7.57;2.40;;;;;;;30.23;34.60;95306.16;4986832;28;20181;-76
2023/08/14 08:05:21;;;;;;;5.45;2.70;;;;;;;30.34;34.27;95318.28;4994458;28;20193;-76
2023/08/14 08:07:46;;;;;;;3.38;2.50;;;;;;;30.26;33.84;95302.00;4994604;28;20220;-75
2023/08/14 08:10:12;;;;;;;5.18;2.25;;;;;;;29.94;33.86;95312.28;4994755;28;20720;-76
2023/08/14 08:12:37;;;;;;;6.28;3.30;;;;;;;30.15;35.13;95301.53;4994682;28;20239;-76
2023/08/14 08:15:03;;;;;;;5.45;2.67;;;;;;;30.27;33.74;95307.09;4995010;28;20227;-76
2023/08/14 08:17:28;;;;;;;3.17;2.33;;;;;;;30.49;34.25;95314.22;4993886;28;20213;-77
2023/08/14 08:19:54;;;;;;;3.72;2.45;;;;;;;30.83;34.66;95309.78;4993115;28;20171;-76
2023/08/14 08:22:19;;;;;;;2.15;2.00;;;;;;;30.13;33.34;95309.22;4992482;28;20557;-76
2023/08/14 08:24:44;;;;;;;3.45;2.40;;;;;;;29.67;34.59;95292.78;4992911;28;20256;-74
2023/08/14 08:27:10;;;;;;;6.32;2.90;;;;;;;29.75;36.35;95302.88;4993470;28;20594;-77
2023/08/14 08:29:35;;;;;;;4.40;2.40;;;;;;;30.02;34.03;95299.81;4989496;28;20232;-76
2023/08/14 08:32:01;;;;;;;4.47;2.33;;;;;;;30.13;34.63;95295.63;4975429;28;20596;-78
2023/08/14 08:34:26;;;;;;;3.15;2.22;;;;;;;29.89;33.99;95290.69;4974498;28;20209;-77
2023/08/14 08:36:52;;;;;;;4.50;2.40;;;;;;;29.39;34.31;95292.34;4975072;28;20190;-77
2023/08/14 08:39:17;;;;;;;3.33;2.40;;;;;;;29.43;34.82;95296.00;4975371;28;20181;-77
2023/08/14 08:41:48;;;;;;;2.88;2.17;;;;;;;29.49;34.71;95290.09;4975469;28;20258;-76
2023/08/14 08:44:25;;;;;;;4.68;2.38;;;;;;;29.33;35.43;95294.38;4974700;28;20169;-77
2023/08/14 08:46:52;;;;;;;7.35;3.13;;;;;;;29.35;35.90;95291.34;4974060;28;20572;-76
2023/08/14 08:49:18;;;;;;;6.93;2.45;;;;;;;29.52;35.76;95284.03;4956489;28;20209;-75
2023/08/14 08:51:45;;;;;;;2.92;2.30;;;;;;;29.43;34.83;95288.66;4973968;28;20198;-77
2023/08/14 08:54:14;;;;;;;7.30;2.85;;;;;;;29.30;35.25;95286.88;4973805;28;20205;-77
2023/08/14 08:56:41;;;;;;;3.25;2.65;;;;;;;29.29;35.20;95282.56;4973803;28;20177;-77
2023/08/14 08:59:08;;;;;;;3.15;2.38;;;;;;;29.51;36.36;95287.06;4970453;28;20178;-77
2023/08/14 09:01:34;;;;;;;2.95;2.47;;;;;;;29.51;35.63;95293.28;4974178;28;20171;-76
2023/08/14 09:04:03;;;;;;;5.00;2.20;;;;;;;29.66;34.52;95283.88;4957010;28;20557;-76
2023/08/14 09:06:29;;;;;;;6.00;2.60;;;;;;;30.01;34.91;95295.50;4979008;28;20256;-77
2023/08/14 09:08:55;;;;;;;3.85;2.15;;;;;;;29.47;34.26;95280.69;4976749;28;20259;-76
2023/08/14 09:11:21;;;;;;;3.05;2.50;;;;;;;29.89;35.10;95277.13;4993885;28;20648;-76
2023/08/14 09:13:46;;;;;;;3.20;2.42;;;;;;;29.81;34.03;95282.56;4990461;28;20209;-77
2023/08/14 09:16:15;;;;;;;5.68;2.95;;;;;;;29.61;33.51;95265.81;4974532;28;20212;-76
2023/08/14 09:18:44;;;;;;;5.03;2.55;;;;;;;29.45;34.11;95270.16;4984371;28;20217;-76
2023/08/14 09:21:11;;;;;;;4.32;2.63;;;;;;;28.87;33.10;95274.06;4994146;28;20268;-77
2023/08/14 09:23:38;;;;;;;4.93;2.60;;;;;;;28.91;33.90;95260.66;4994361;28;20189;-77
2023/08/14 09:26:04;;;;;;;6.75;2.85;;;;;;;29.10;34.38;95265.81;4993958;28;20181;-78
2023/08/14 09:28:30;;;;;;;3.20;2.38;;;;;;;28.85;33.78;95270.88;4990808;28;20180;-79
2023/08/14 09:31:07;;;;;;;2.78;2.15;;;;;;;28.72;34.62;95260.91;4976307;28;20716;-77
2023/08/14 09:33:35;;;;;;;3.28;2.08;;;;;;;28.53;35.24;95260.41;4993989;28;20197;-78
2023/08/14 09:36:00;;;;;;;4.45;2.22;;;;;;;28.48;35.44;95255.91;4993582;28;20548;-78
2023/08/14 09:38:27;;;;;;;3.80;2.38;;;;;;;28.54;35.72;95253.88;4993439;28;20180;-77
2023/08/14 09:40:59;;;;;;;3.00;2.17;;;;;;;28.61;35.13;95232.53;4993654;28;20161;-78
2023/08/14 09:43:26;;;;;;;3.42;2.30;;;;;;;28.85;35.01;95246.47;4982696;28;20653;-78
2023/08/14 09:45:55;;;;;;;2.30;1.98;;;;;;;28.98;34.38;95252.84;4992592;28;20649;-78
2023/08/14 09:48:21;;;;;;;3.50;1.80;;;;;;;29.09;34.51;95261.47;4993461;28;20177;-79
2023/08/14 09:50:51;;;;;;;3.40;2.20;;;;;;;28.80;34.21;95254.75;4981400;28;20499;-77
2023/08/14 09:53:17;;;;;;;3.63;2.65;;;;;;;28.59;35.46;95242.06;4995225;28;20643;-77
2023/08/14 09:55:43;;;;;;;3.90;2.45;;;;;;;28.63;35.70;95224.84;5012932;28;20655;-77
2023/08/14 09:58:09;;;;;;;2.80;2.13;;;;;;;28.58;35.55;95235.06;5001214;28;20181;-76
2023/08/14 10:00:37;;;;;;;2.03;1.83;;;;;;;28.60;36.69;95240.97;4993061;28;20177;-77
2023/08/14 10:03:06;;;;;;;4.00;2.58;;;;;;;28.69;38.64;95234.47;4993738;28;20236;-78
2023/08/14 10:05:33;;;;;;;5.28;2.15;;;;;;;28.65;38.73;95214.50;4993002;28;20165;-77
2023/08/14 10:08:00;;;;;;;2.50;2.30;;;;;;;28.75;37.78;95243.22;4992681;28;20688;-74
2023/08/14 10:10:29;;;;;;;3.88;2.50;;;;;;;28.47;37.84;95196.63;4988918;28;20256;-75
2023/08/14 10:13:04;;;;;;;2.53;2.20;;;;;;;28.52;37.06;95229.00;4992198;28;20181;-74
2023/08/14 10:15:34;;;;;;;4.10;2.58;;;;;;;28.16;37.89;95226.47;4992540;28;20355;-75
2023/08/14 10:18:04;;;;;;;4.15;2.33;;;;;;;27.80;37.61;95213.06;4974909;28;20221;-74
2023/08/14 10:20:34;;;;;;;5.05;2.35;;;;;;;27.67;38.77;95220.19;4992504;28;21012;-74
2023/08/14 10:23:00;;;;;;;2.30;2.10;;;;;;;27.48;38.88;95206.00;4991914;28;20177;-74
2023/08/14 10:25:26;;;;;;;3.15;2.63;;;;;;;27.50;38.01;95225.44;4991961;28;20165;-74
2023/08/14 10:27:52;;;;;;;2.90;2.17;;;;;;;27.47;38.78;95219.84;4991614;28;20231;-75
2023/08/14 10:30:54;;;;;;;4.70;2.67;;;;;;;27.48;40.33;95216.03;4991901;28;20553;-74
2023/08/14 10:33:21;;;;;;;3.80;2.40;;;;;;;27.48;40.35;95221.44;4972201;28;20177;-74
2023/08/14 10:35:50;;;;;;;5.32;2.60;;;;;;;27.54;39.35;95214.81;4972591;28;20154;-74
2023/08/14 10:38:19;;;;;;;2.85;2.20;;;;;;;27.58;38.40;95210.41;4972324;28;20261;-74
2023/08/14 10:41:04;;;;;;;2.55;2.20;;;;;;;27.52;39.39;95206.97;4991669;28;20196;-74
2023/08/14 10:43:31;;;;;;;6.75;2.15;;;;;;;27.52;39.17;95208.88;4991700;28;20165;-74
2023/08/14 10:45:56;;;;;;;6.22;2.40;;;;;;;27.52;39.35;95200.75;4991452;28;20164;-74
2023/08/14 10:48:22;;;;;;;2.90;2.05;;;;;;;27.50;40.62;95192.97;4991515;28;20252;-75
2023/08/14 10:50:49;;;;;;;2.78;2.17;;;;;;;27.61;39.58;95194.34;4988282;28;20664;-74
2023/08/14 10:53:15;;;;;;;5.13;2.75;;;;;;;27.66;39.20;95194.22;4982651;28;20704;-75
2023/08/14 10:55:43;;;;;;;2.95;2.45;;;;;;;27.70;39.74;95186.25;4989378;28;20239;-74
2023/08/14 10:58:28;;;;;;;3.78;2.45;;;;;;;27.75;38.45;95194.25;4988500;28;20248;-75
2023/08/14 11:00:53;;;;;;;4.07;2.50;;;;;;;27.72;39.38;95192.16;4971894;28;20184;-75
2023/08/14 11:03:19;;;;;;;2.60;2.22;;;;;;;27.37;39.67;95127.03;4971658;28;20170;-74
2023/08/14 11:05:44;;;;;;;3.30;2.70;;;;;;;27.86;39.45;95195.56;4971622;28;20177;-74
2023/08/14 11:08:11;;;;;;;3.28;2.83;;;;;;;27.87;39.06;95190.97;4971821;28;20197;-74
2023/08/14 11:10:38;;;;;;;2.53;2.22;;;;;;;27.87;39.70;95193.66;4988948;28;20188;-74
2023/08/14 11:13:08;;;;;;;4.30;2.53;;;;;;;27.85;39.81;95207.50;4990842;28;20185;-74
2023/08/14 11:15:38;;;;;;;4.63;2.92;;;;;;;27.43;41.11;95170.97;4991219;28;20759;-74
2023/08/14 11:18:05;;;;;;;3.20;2.40;;;;;;;27.58;40.09;95194.97;4991318;28;20677;-74
2023/08/14 11:20:32;;;;;;;2.90;2.30;;;;;;;27.55;41.51;95186.66;4991253;28;20621;-74
2023/08/14 11:22:59;;;;;;;2.60;2.40;;;;;;;27.69;41.10;95184.66;4991044;28;20200;-74
2023/08/14 11:25:24;;;;;;;3.28;2.10;;;;;;;27.81;40.56;95184.91;4991162;28;20175;-74
2023/08/14 11:27:54;;;;;;;5.00;3.00;;;;;;;27.96;39.82;95173.66;4990913;28;20161;-74
2023/08/14 11:30:22;;;;;;;5.03;2.33;;;;;;;28.01;39.64;95173.53;4990906;28;20267;-74
2023/08/14 11:32:47;;;;;;;6.00;2.67;;;;;;;28.01;39.64;95181.66;4990795;28;20189;-75
2023/08/14 11:35:15;;;;;;;3.67;2.33;;;;;;;28.04;39.84;95174.78;4990641;28;20208;-74
2023/08/14 11:37:41;;;;;;;4.60;2.53;;;;;;;27.88;39.85;95133.00;4990411;28;20181;-74
2023/08/14 11:40:09;;;;;;;2.67;2.10;;;;;;;28.20;40.22;95167.06;4990600;28;20169;-74
2023/08/14 11:42:35;;;;;;;4.03;3.25;;;;;;;28.27;39.71;95179.06;4989390;28;20546;-74
2023/08/14 11:45:03;;;;;;;2.75;2.30;;;;;;;28.21;39.39;95174.88;4971208;28;20236;-74